createdAt,value
2023-03-02T11:56:44.889Z,25.54
2023-03-02T11:57:45.360Z,25.60
2023-03-02T11:58:45.313Z,25.67
2023-03-02T11:59:45.563Z,25.65
2023-03-02T12:00:45.299Z,25.60
2023-03-02T12:01:45.302Z,25.69
2023-03-02T12:02:45.932Z,25.75
2023-03-02T12:03:45.296Z,25.72
2023-03-02T12:04:45.222Z,25.70
2023-03-02T12:05:45.302Z,25.61
2023-03-02T12:06:45.239Z,25.64
2023-03-02T12:07:45.154Z,25.65
2023-03-02T12:08:45.153Z,25.70
2023-03-02T12:09:47.767Z,25.80
2023-03-02T12:10:45.178Z,25.87
2023-03-02T12:11:45.780Z,25.98
2023-03-02T12:12:45.071Z,26.09
2023-03-02T12:13:45.095Z,26.13
2023-03-02T12:14:45.109Z,26.28
2023-03-02T12:15:45.116Z,26.48
2023-03-02T12:16:45.778Z,26.67
2023-03-02T12:17:45.077Z,26.88
2023-03-02T12:18:44.994Z,27.09
2023-03-02T12:19:45.908Z,27.17
2023-03-02T12:20:45.013Z,27.22
2023-03-02T12:21:46.016Z,27.29
2023-03-02T12:22:45.051Z,27.34
2023-03-02T12:23:45.005Z,27.37
2023-03-02T12:24:45.072Z,27.32
2023-03-02T12:25:45.740Z,27.27
2023-03-02T12:26:44.985Z,27.28
2023-03-02T12:27:46.025Z,27.28
2023-03-02T22:53:27.720Z,24.91
2023-03-02T22:54:08.298Z,24.84
2023-03-02T22:55:08.176Z,24.84
2023-03-02T22:56:08.092Z,24.87
2023-03-02T22:57:08.140Z,24.87
2023-03-02T22:58:08.787Z,24.87
2023-03-02T22:59:07.483Z,24.90
2023-03-02T23:00:09.008Z,24.95
2023-03-02T23:01:08.124Z,24.98
2023-03-02T23:02:08.139Z,24.99
2023-03-02T23:03:07.405Z,24.83
2023-03-02T23:04:08.841Z,24.64
2023-03-02T23:05:07.486Z,24.52
2023-03-02T23:06:07.355Z,24.49
2023-03-02T23:07:08.997Z,24.55
2023-03-02T23:08:07.344Z,24.64
2023-03-02T23:09:07.373Z,24.76
2023-03-02T23:10:09.524Z,24.81
2023-03-02T23:11:09.406Z,24.83
2023-03-02T23:12:07.350Z,24.88
2023-03-02T23:13:07.972Z,24.85
2023-03-02T23:14:07.268Z,24.85
2023-03-02T23:15:08.191Z,24.85
2023-03-02T23:16:08.104Z,24.85
2023-03-02T23:17:08.112Z,24.95
2023-03-02T23:18:07.222Z,24.96
2023-03-02T23:19:07.249Z,24.98
2023-03-02T23:20:08.970Z,24.90
2023-03-02T23:21:07.202Z,24.78
2023-03-02T23:22:07.185Z,24.69
2023-03-02T23:23:07.208Z,24.58
2023-03-02T23:24:07.977Z,24.52
2023-03-02T23:25:07.862Z,24.52
2023-03-02T23:26:07.215Z,24.49
2023-03-02T23:27:07.141Z,24.43
2023-03-02T23:28:07.107Z,24.42
2023-03-02T23:29:07.213Z,24.46
2023-03-02T23:30:07.854Z,24.52
2023-03-02T23:31:07.121Z,24.55
2023-03-02T23:32:08.609Z,24.53
2023-03-02T23:33:07.957Z,24.49
2023-03-02T23:34:07.056Z,24.49
2023-03-02T23:35:07.072Z,24.49
2023-03-02T23:36:07.865Z,24.47
2023-03-02T23:37:07.045Z,24.43
2023-03-02T23:38:06.991Z,24.42
2023-03-02T23:39:07.017Z,24.42
2023-03-02T23:40:06.969Z,24.45
2023-03-02T23:41:07.070Z,24.45
2023-03-02T23:42:06.963Z,24.45
2023-03-02T23:43:07.725Z,24.43
2023-03-02T23:44:06.938Z,24.34
2023-03-02T23:45:06.930Z,24.24
2023-03-02T23:46:07.002Z,24.22
2023-03-02T23:47:06.958Z,24.24
2023-03-02T23:48:07.611Z,24.22
2023-03-02T23:49:06.875Z,24.20
2023-03-02T23:50:07.567Z,24.15
2023-03-02T23:51:06.844Z,24.20
2023-03-02T23:52:07.722Z,24.24
2023-03-02T23:53:06.831Z,24.27
2023-03-02T23:54:07.491Z,24.30
2023-03-02T23:55:06.805Z,24.35
2023-03-02T23:56:06.823Z,24.37
2023-03-02T23:57:06.777Z,24.46
2023-03-02T23:58:06.803Z,24.52
2023-03-02T23:59:07.183Z,24.58
